Time;durP1;ratioP1;P1;durP2;ratioP2;P2;SDS_P1;SDS_P2;PMS_P1;PMS_P2;Temp;Humidity;BMP_temperature;BMP_pressure;BME280_temperature;BME280_humidity;BME280_pressure;Samples;Min_cycle;Max_cycle;Signal;HPM_P1;HPM_P2
2022/03/11 00:02:21;;;;;;;14.05;7.13;;;5.30;99.90;;;;;;5048593;28;20051;-72
2022/03/11 00:04:47;;;;;;;14.48;7.07;;;5.30;99.90;;;;;;5066964;28;20036;-72
2022/03/11 00:07:13;;;;;;;12.52;6.80;;;5.20;99.90;;;;;;5053528;28;20399;-73
2022/03/11 00:09:38;;;;;;;12.57;6.60;;;5.20;99.90;;;;;;5063654;28;20068;-72
2022/03/11 00:12:06;;;;;;;14.57;7.05;;;5.20;99.90;;;;;;5047984;28;20065;-72
2022/03/11 00:14:32;;;;;;;12.20;6.90;;;5.20;99.90;;;;;;5061322;28;20400;-72
2022/03/11 00:16:57;;;;;;;15.93;7.55;;;5.10;99.90;;;;;;5047132;28;20128;-72
2022/03/11 00:19:23;;;;;;;12.10;6.63;;;5.10;99.90;;;;;;5041787;28;20127;-72
2022/03/11 00:21:49;;;;;;;12.25;7.43;;;5.10;99.90;;;;;;5051958;28;20037;-72
2022/03/11 00:24:14;;;;;;;12.15;6.78;;;5.00;99.90;;;;;;5064687;28;20120;-72
2022/03/11 00:26:40;;;;;;;14.15;6.85;;;5.00;99.90;;;;;;5069399;28;20546;-72
2022/03/11 00:29:06;;;;;;;16.13;7.20;;;4.90;99.90;;;;;;5066594;28;20052;-72
2022/03/11 00:31:31;;;;;;;12.75;7.15;;;4.90;99.90;;;;;;5067808;28;20052;-72
2022/03/11 00:33:58;;;;;;;12.50;6.82;;;4.80;99.90;;;;;;5047421;28;20404;-72
2022/03/11 00:36:24;;;;;;;12.52;7.03;;;4.70;99.90;;;;;;5041772;28;20044;-72
2022/03/11 00:38:50;;;;;;;11.20;6.15;;;4.70;99.90;;;;;;5051913;28;21324;-72
2022/03/11 00:41:16;;;;;;;11.43;7.05;;;4.70;99.90;;;;;;5048576;28;20484;-72
2022/03/11 00:43:43;;;;;;;15.57;6.90;;;4.60;99.90;;;;;;5064157;28;20049;-72
2022/03/11 00:46:08;;;;;;;16.45;7.05;;;4.60;99.90;;;;;;5071248;28;20275;-72
2022/03/11 00:48:34;;;;;;;13.15;6.97;;;4.50;99.90;;;;;;5041879;28;20088;-72
2022/03/11 00:51:00;;;;;;;15.93;7.50;;;4.50;99.90;;;;;;5048318;28;20068;-72
2022/03/11 00:53:27;;;;;;;15.75;6.97;;;4.40;99.90;;;;;;5045958;28;20540;-73
2022/03/11 00:55:56;;;;;;;13.48;6.25;;;4.40;99.90;;;;;;5050313;28;20102;-72
2022/03/11 00:58:21;;;;;;;14.07;7.47;;;4.30;99.90;;;;;;5061612;28;20043;-72
2022/03/11 01:00:47;;;;;;;12.05;6.93;;;4.30;99.90;;;;;;5051249;28;20052;-72
2022/03/11 01:03:13;;;;;;;14.38;7.15;;;4.30;99.90;;;;;;5065368;28;20043;-72
2022/03/11 01:05:39;;;;;;;13.52;6.85;;;4.20;99.90;;;;;;5068563;28;20052;-72
2022/03/11 01:08:05;;;;;;;11.57;6.78;;;4.20;99.90;;;;;;5065608;28;20049;-72
2022/03/11 01:10:30;;;;;;;12.82;7.50;;;4.20;99.90;;;;;;5070492;28;20384;-72
2022/03/11 01:12:56;;;;;;;13.75;6.97;;;4.20;99.90;;;;;;5044154;28;20564;-72
2022/03/11 01:15:22;;;;;;;12.75;6.72;;;4.10;99.90;;;;;;5069839;28;20052;-72
2022/03/11 01:17:47;;;;;;;13.02;7.35;;;4.10;99.90;;;;;;5046020;28;20503;-72
2022/03/11 01:20:13;;;;;;;13.02;7.28;;;4.10;99.90;;;;;;5048225;28;20045;-72
2022/03/11 01:22:39;;;;;;;14.13;6.88;;;4.00;99.90;;;;;;5040644;28;20077;-72
2022/03/11 01:25:05;;;;;;;14.77;8.00;;;4.00;99.90;;;;;;5074199;28;20059;-72
2022/03/11 01:27:31;;;;;;;13.32;7.13;;;3.90;99.90;;;;;;5043806;28;20047;-72
2022/03/11 01:29:57;;;;;;;13.90;7.68;;;3.90;99.90;;;;;;5048846;28;20036;-72
2022/03/11 01:32:22;;;;;;;12.68;6.88;;;3.90;99.90;;;;;;5040280;28;20495;-72
2022/03/11 01:34:48;;;;;;;14.55;7.53;;;3.90;99.90;;;;;;5060547;28;20041;-72
2022/03/11 01:37:14;;;;;;;13.93;6.88;;;3.80;99.90;;;;;;5049707;28;20088;-72
2022/03/11 01:39:39;;;;;;;14.15;7.68;;;3.80;99.90;;;;;;5049978;28;20052;-72
2022/03/11 01:42:06;;;;;;;14.90;7.47;;;3.80;99.90;;;;;;5040387;28;20127;-72
2022/03/11 01:44:31;;;;;;;15.27;7.15;;;3.70;99.90;;;;;;5068515;28;20039;-72
2022/03/11 01:46:57;;;;;;;15.57;8.02;;;3.70;99.90;;;;;;5046814;28;20036;-72
2022/03/11 01:49:23;;;;;;;16.00;8.80;;;3.70;99.90;;;;;;5068471;28;20056;-72
2022/03/11 01:51:49;;;;;;;15.43;7.47;;;3.70;99.90;;;;;;5040703;28;20491;-72
2022/03/11 01:54:15;;;;;;;14.00;7.63;;;3.70;99.90;;;;;;5063254;28;20123;-73
2022/03/11 01:56:41;;;;;;;18.13;8.15;;;3.60;99.90;;;;;;5069431;28;20045;-72
2022/03/11 01:59:08;;;;;;;16.20;8.38;;;3.60;99.90;;;;;;5051137;28;20135;-72
2022/03/11 02:01:34;;;;;;;14.60;8.20;;;3.60;99.90;;;;;;5070172;28;20095;-72
2022/03/11 02:04:00;;;;;;;16.17;8.30;;;3.50;99.90;;;;;;5053742;28;20120;-72
2022/03/11 02:06:26;;;;;;;14.50;8.27;;;3.50;99.90;;;;;;5053724;28;20560;-72
2022/03/11 02:08:53;;;;;;;15.35;8.50;;;3.50;99.90;;;;;;5068072;28;20043;-72
2022/03/11 02:11:19;;;;;;;14.85;8.38;;;3.50;99.90;;;;;;5052190;28;20087;-72
2022/03/11 02:13:48;;;;;;;16.13;8.13;;;3.40;99.90;;;;;;5068132;28;20083;-72
2022/03/11 02:16:21;;;;;;;18.98;9.63;;;3.40;99.90;;;;;;5068801;28;20048;-72
2022/03/11 02:18:47;;;;;;;16.38;9.25;;;3.40;99.90;;;;;;5052220;28;20041;-72
2022/03/11 02:21:14;;;;;;;17.85;9.40;;;3.40;99.90;;;;;;5050706;28;20447;-72
2022/03/11 02:23:44;;;;;;;17.42;9.25;;;3.40;99.90;;;;;;5072038;28;20094;-72
2022/03/11 02:26:10;;;;;;;18.15;10.02;;;3.30;99.90;;;;;;5069878;28;20040;-72
2022/03/11 02:28:35;;;;;;;21.88;9.77;;;3.30;99.90;;;;;;5052561;28;20037;-72
2022/03/11 02:31:01;;;;;;;20.08;10.50;;;3.30;99.90;;;;;;5050735;28;20521;-72
2022/03/11 02:33:28;;;;;;;18.98;9.98;;;3.20;99.90;;;;;;5042933;28;20072;-72
2022/03/11 02:35:54;;;;;;;21.90;10.80;;;3.40;99.90;;;;;;5071004;28;20086;-72
2022/03/11 02:38:20;;;;;;;18.17;9.65;;;3.20;99.90;;;;;;5047360;28;20044;-72
2022/03/11 02:40:46;;;;;;;21.65;9.90;;;3.20;99.90;;;;;;5068443;28;20045;-72
2022/03/11 02:43:12;;;;;;;23.38;11.73;;;3.20;99.90;;;;;;5076464;28;20387;-72
2022/03/11 02:45:38;;;;;;;21.17;12.05;;;3.20;99.90;;;;;;5073143;28;20091;-72
2022/03/11 02:48:04;;;;;;;22.90;11.70;;;3.20;99.90;;;;;;5048754;28;20053;-72
2022/03/11 02:50:30;;;;;;;24.45;12.10;;;3.20;99.90;;;;;;5042123;28;20040;-72
2022/03/11 02:52:55;;;;;;;19.25;11.38;;;3.20;99.90;;;;;;5051009;28;20056;-72
2022/03/11 02:55:21;;;;;;;21.52;12.38;;;3.20;99.90;;;;;;5048962;28;20139;-72
2022/03/11 02:57:47;;;;;;;22.67;12.68;;;3.20;99.90;;;;;;5062774;28;20033;-72
2022/03/11 03:00:13;;;;;;;21.50;11.75;;;3.10;99.90;;;;;;5051936;28;20075;-73
2022/03/11 03:02:38;;;;;;;21.15;11.60;;;3.10;99.90;;;;;;5048744;28;20570;-72
2022/03/11 03:05:05;;;;;;;27.70;13.80;;;3.10;99.90;;;;;;5053244;28;20041;-72
2022/03/11 03:07:30;;;;;;;23.73;13.02;;;3.00;99.90;;;;;;5046038;28;20810;-72
2022/03/11 03:09:58;;;;;;;24.90;12.55;;;3.00;99.90;;;;;;5049847;28;20044;-73
2022/03/11 03:12:24;;;;;;;23.80;13.50;;;3.00;99.90;;;;;;5075166;28;20057;-72
2022/03/11 03:14:50;;;;;;;26.98;13.00;;;3.00;99.90;;;;;;5050672;28;20789;-72
2022/03/11 03:17:18;;;;;;;23.02;12.55;;;3.00;99.90;;;;;;5041604;28;20044;-72
2022/03/11 03:19:47;;;;;;;25.52;13.35;;;3.00;99.90;;;;;;5050749;28;20049;-72
2022/03/11 03:22:12;;;;;;;21.83;12.23;;;3.00;99.90;;;;;;5066463;28;20036;-72
2022/03/11 03:24:38;;;;;;;21.45;13.75;;;2.90;99.90;;;;;;5051504;28;20044;-72
2022/03/11 03:27:04;;;;;;;26.80;14.55;;;2.90;99.90;;;;;;5051387;28;20400;-72
2022/03/11 03:29:30;;;;;;;28.17;13.95;;;2.90;99.90;;;;;;5046390;28;20044;-72
2022/03/11 03:31:58;;;;;;;26.42;15.50;;;2.80;99.90;;;;;;5061531;28;20045;-72
2022/03/11 03:34:32;;;;;;;26.80;14.52;;;2.80;99.90;;;;;;5052418;28;20465;-72
2022/03/11 03:36:59;;;;;;;27.10;14.48;;;2.80;99.90;;;;;;5045740;28;20493;-72
2022/03/11 03:39:25;;;;;;;25.85;15.68;;;2.80;99.90;;;;;;5042976;28;20041;-72
2022/03/11 03:41:51;;;;;;;29.80;15.38;;;2.80;99.90;;;;;;5046991;28;20045;-72
2022/03/11 03:44:17;;;;;;;26.77;14.13;;;2.80;99.90;;;;;;5051333;28;20048;-72
2022/03/11 03:46:42;;;;;;;26.77;16.05;;;2.70;99.90;;;;;;5044420;28;20052;-72
2022/03/11 03:49:08;;;;;;;31.02;15.73;;;2.80;99.90;;;;;;5063435;28;20056;-72
2022/03/11 03:51:34;;;;;;;31.60;15.30;;;2.70;99.90;;;;;;5044609;28;20530;-72
2022/03/11 03:54:00;;;;;;;31.17;16.48;;;2.70;99.90;;;;;;5067006;28;20044;-72
2022/03/11 03:56:26;;;;;;;30.15;15.75;;;2.70;99.90;;;;;;5044202;28;20040;-72
2022/03/11 03:58:52;;;;;;;25.73;15.70;;;2.70;99.90;;;;;;5068722;28;20080;-72
2022/03/11 04:01:17;;;;;;;27.35;15.25;;;3.00;99.90;;;;;;5047964;28;20043;-72
2022/03/11 04:03:43;;;;;;;30.10;16.85;;;2.70;99.90;;;;;;5044357;28;20045;-72
2022/03/11 04:06:08;;;;;;;26.73;14.63;;;2.70;99.90;;;;;;5049074;28;20135;-72
2022/03/11 04:08:34;;;;;;;27.00;15.43;;;2.60;99.90;;;;;;5052977;28;20403;-72
2022/03/11 04:11:00;;;;;;;28.05;15.00;;;2.60;99.90;;;;;;5042581;28;20048;-72
2022/03/11 04:13:26;;;;;;;27.40;14.85;;;2.60;99.90;;;;;;5067834;28;20260;-72
2022/03/11 04:15:52;;;;;;;30.38;16.15;;;2.60;99.90;;;;;;5044650;28;20065;-72
2022/03/11 04:18:17;;;;;;;30.08;16.75;;;2.60;99.90;;;;;;5043299;28;20029;-72
2022/03/11 04:20:43;;;;;;;29.70;16.60;;;2.50;99.90;;;;;;5049667;28;20045;-72
2022/03/11 04:23:08;;;;;;;34.33;17.52;;;3.00;99.90;;;;;;5071231;28;20063;-72
2022/03/11 04:25:34;;;;;;;30.00;16.40;;;2.50;99.90;;;;;;5042484;28;20139;-72
2022/03/11 04:28:00;;;;;;;36.05;17.60;;;2.50;99.90;;;;;;5066412;28;20404;-72
2022/03/11 04:30:25;;;;;;;30.58;15.50;;;2.50;99.90;;;;;;5049678;28;20097;-72
2022/03/11 04:32:51;;;;;;;33.42;16.15;;;2.40;99.90;;;;;;5045504;28;20055;-72
2022/03/11 04:35:17;;;;;;;29.17;16.23;;;2.40;99.90;;;;;;5042213;28;20041;-73
2022/03/11 04:37:42;;;;;;;29.92;16.10;;;2.40;99.90;;;;;;5068161;28;20037;-72
2022/03/11 04:40:09;;;;;;;29.67;15.40;;;2.40;99.90;;;;;;5070257;28;20068;-72
2022/03/11 04:42:35;;;;;;;31.33;17.38;;;2.40;99.90;;;;;;5049152;28;20614;-72
2022/03/11 04:45:01;;;;;;;29.58;16.45;;;2.30;99.90;;;;;;5066262;28;20053;-72
2022/03/11 04:47:27;;;;;;;31.65;16.77;;;2.30;99.90;;;;;;5063373;28;20037;-71
2022/03/11 04:49:52;;;;;;;27.67;15.13;;;2.30;99.90;;;;;;5043512;28;20055;-72
2022/03/11 04:52:18;;;;;;;30.92;16.65;;;2.20;99.90;;;;;;5046249;28;20110;-72
2022/03/11 04:54:44;;;;;;;30.48;16.95;;;2.20;99.90;;;;;;5039743;28;20041;-71
2022/03/11 04:57:09;;;;;;;31.20;15.88;;;2.20;99.90;;;;;;5049114;28;20478;-72
2022/03/11 04:59:35;;;;;;;29.02;16.90;;;2.10;99.90;;;;;;5044313;28;20128;-72
2022/03/11 05:02:00;;;;;;;27.60;16.15;;;2.10;99.90;;;;;;5051538;28;20163;-72
2022/03/11 05:04:26;;;;;;;30.65;16.83;;;2.10;99.90;;;;;;5048464;28;20128;-72
2022/03/11 05:06:52;;;;;;;30.40;16.40;;;2.10;99.90;;;;;;5044299;28;20048;-72
2022/03/11 05:09:17;;;;;;;32.58;16.23;;;2.10;99.90;;;;;;5047519;28;20120;-72
2022/03/11 05:11:43;;;;;;;28.52;15.50;;;2.10;99.90;;;;;;5045729;28;20135;-72
2022/03/11 05:14:09;;;;;;;28.95;15.90;;;2.10;99.90;;;;;;5050025;28;20123;-72
2022/03/11 05:16:34;;;;;;;29.13;15.93;;;2.00;99.90;;;;;;5070272;28;20457;-73
2022/03/11 05:19:00;;;;;;;27.77;16.75;;;2.00;99.90;;;;;;5052325;28;20040;-72
2022/03/11 05:21:26;;;;;;;30.83;16.20;;;1.90;99.90;;;;;;5069214;28;20044;-72
2022/03/11 05:23:51;;;;;;;29.55;17.00;;;1.90;99.90;;;;;;5065797;28;20040;-72
2022/03/11 05:26:24;;;;;;;31.10;16.90;;;1.90;99.90;;;;;;5066914;28;20041;-72
2022/03/11 05:28:54;;;;;;;29.98;15.60;;;1.90;99.90;;;;;;5064593;28;20399;-72
2022/03/11 05:31:21;;;;;;;28.38;15.70;;;1.90;99.90;;;;;;5062404;28;20040;-72
2022/03/11 05:33:50;;;;;;;33.03;16.42;;;1.90;99.90;;;;;;5048110;28;20041;-72
2022/03/11 05:36:16;;;;;;;30.02;16.00;;;1.90;99.90;;;;;;5046661;28;20394;-72
2022/03/11 05:38:42;;;;;;;32.45;17.05;;;1.90;99.90;;;;;;5044035;28;20045;-72
2022/03/11 05:41:08;;;;;;;30.27;16.98;;;1.90;99.90;;;;;;5047442;28;20109;-71
2022/03/11 05:43:33;;;;;;;29.05;15.85;;;1.80;99.90;;;;;;5059544;28;20094;-72
2022/03/11 05:45:59;;;;;;;30.60;15.57;;;1.80;99.90;;;;;;5038394;28;20087;-72
2022/03/11 05:48:25;;;;;;;28.00;16.33;;;2.00;99.90;;;;;;5069110;28;20445;-71
2022/03/11 05:50:50;;;;;;;30.80;16.20;;;1.80;99.90;;;;;;5043752;28;20056;-71
2022/03/11 05:53:16;;;;;;;26.35;15.95;;;1.80;99.90;;;;;;5043492;28;20049;-72
2022/03/11 05:55:42;;;;;;;33.40;16.63;;;1.80;99.90;;;;;;5048941;28;20053;-72
2022/03/11 05:58:07;;;;;;;29.73;16.67;;;1.80;99.90;;;;;;5065694;28;20496;-72
2022/03/11 06:00:33;;;;;;;30.08;16.30;;;1.80;99.90;;;;;;5049775;28;20044;-72
2022/03/11 06:02:58;;;;;;;29.48;16.65;;;1.80;99.90;;;;;;5070079;28;20040;-72
2022/03/11 06:05:24;;;;;;;29.63;16.50;;;1.80;99.90;;;;;;5049450;28;20060;-72
2022/03/11 06:07:50;;;;;;;37.38;17.73;;;1.80;99.90;;;;;;5045979;28;20488;-71
2022/03/11 06:10:16;;;;;;;28.65;15.82;;;1.80;99.90;;;;;;5048072;28;20135;-71
2022/03/11 06:12:41;;;;;;;29.98;15.93;;;1.80;99.90;;;;;;5068357;28;20039;-71
2022/03/11 06:15:09;;;;;;;27.80;15.65;;;2.30;99.90;;;;;;5051212;28;20036;-72
2022/03/11 06:17:34;;;;;;;30.15;16.52;;;1.80;99.90;;;;;;5050237;28;20045;-71
2022/03/11 06:20:00;;;;;;;29.80;17.02;;;1.80;99.90;;;;;;5039130;28;20064;-72
2022/03/11 06:22:26;;;;;;;34.10;16.55;;;1.70;99.90;;;;;;5049295;28;20048;-72
2022/03/11 06:24:51;;;;;;;26.23;16.50;;;1.80;99.90;;;;;;5061487;28;20039;-73
2022/03/11 06:27:17;;;;;;;28.38;15.93;;;1.80;99.90;;;;;;5063397;28;20393;-73
2022/03/11 06:29:43;;;;;;;29.40;15.77;;;1.80;99.90;;;;;;5051887;28;20105;-73
2022/03/11 06:32:09;;;;;;;29.17;16.50;;;1.90;99.90;;;;;;5069065;28;20040;-77
2022/03/11 06:34:35;;;;;;;32.15;14.50;;;1.80;99.90;;;;;;5049091;28;20114;-73
2022/03/11 06:37:01;;;;;;;30.75;16.42;;;1.80;99.90;;;;;;5069953;28;20040;-70
2022/03/11 06:39:26;;;;;;;32.67;17.15;;;1.80;99.90;;;;;;5066139;28;20094;-71
2022/03/11 06:41:52;;;;;;;26.90;15.27;;;1.90;99.90;;;;;;5070804;28;20132;-71
2022/03/11 06:44:18;;;;;;;29.27;16.38;;;1.90;99.90;;;;;;5072927;28;20479;-71
2022/03/11 06:46:44;;;;;;;28.83;15.82;;;1.90;99.90;;;;;;5071932;28;20040;-71
2022/03/11 06:49:11;;;;;;;30.10;16.70;;;2.00;99.90;;;;;;5069553;28;20090;-72
2022/03/11 06:51:36;;;;;;;29.05;16.13;;;2.00;99.90;;;;;;5068865;28;20169;-72
2022/03/11 06:54:04;;;;;;;30.30;16.30;;;2.00;99.90;;;;;;5054231;28;20476;-72
2022/03/11 06:56:30;;;;;;;30.33;15.65;;;2.10;99.90;;;;;;5062948;28;20044;-72
2022/03/11 06:58:56;;;;;;;28.23;15.15;;;2.10;99.90;;;;;;5070488;28;20120;-72
2022/03/11 07:01:21;;;;;;;27.10;15.05;;;2.20;99.90;;;;;;5066441;28;20047;-76
2022/03/11 07:03:47;;;;;;;27.67;15.45;;;2.20;99.90;;;;;;5072629;28;20527;-76
2022/03/11 07:06:13;;;;;;;26.77;15.63;;;2.20;99.90;;;;;;5047179;28;20041;-76
2022/03/11 07:08:38;;;;;;;28.45;15.85;;;2.30;99.90;;;;;;5048163;28;20472;-76
2022/03/11 07:11:05;;;;;;;26.73;14.93;;;2.40;99.90;;;;;;5062931;28;20098;-76
2022/03/11 07:13:31;;;;;;;27.85;14.85;;;2.40;99.90;;;;;;5049176;28;20052;-77
2022/03/11 07:15:57;;;;;;;28.40;15.52;;;2.50;99.90;;;;;;5046982;28;20037;-77
2022/03/11 07:18:23;;;;;;;26.38;14.65;;;2.50;99.90;;;;;;5069731;28;20122;-77
2022/03/11 07:20:49;;;;;;;30.60;15.82;;;2.60;99.90;;;;;;5065708;28;20083;-79
2022/03/11 07:23:14;;;;;;;28.38;14.80;;;2.60;99.90;;;;;;5062347;28;20040;-76
2022/03/11 07:25:40;;;;;;;30.38;15.70;;;2.70;99.90;;;;;;5071648;28;20052;-79
2022/03/11 07:28:06;;;;;;;30.27;15.45;;;2.80;99.90;;;;;;5071866;28;20036;-79
2022/03/11 07:30:31;;;;;;;27.55;15.20;;;2.80;99.90;;;;;;5052407;28;20064;-80
2022/03/11 07:32:57;;;;;;;27.65;15.27;;;2.90;99.90;;;;;;5070893;28;20032;-78
2022/03/11 07:35:23;;;;;;;30.50;15.68;;;3.00;99.90;;;;;;5061867;28;20048;-77
2022/03/11 07:37:50;;;;;;;27.83;14.93;;;3.10;99.90;;;;;;5040513;28;20519;-78
2022/03/11 07:40:15;;;;;;;30.98;15.80;;;3.10;99.90;;;;;;5050282;28;20135;-77
2022/03/11 07:42:43;;;;;;;27.88;15.32;;;3.20;99.90;;;;;;5060972;28;20123;-78
2022/03/11 07:45:13;;;;;;;26.48;14.77;;;3.60;99.90;;;;;;5065787;28;20036;-77
2022/03/11 07:47:41;;;;;;;28.20;14.95;;;3.30;99.90;;;;;;5063627;28;20068;-77
2022/03/11 07:50:10;;;;;;;27.52;15.73;;;3.30;99.90;;;;;;5040192;28;20522;-76
2022/03/11 07:52:37;;;;;;;28.42;15.07;;;3.50;99.90;;;;;;5047260;28;20385;-75
2022/03/11 07:55:04;;;;;;;25.33;13.43;;;3.50;99.90;;;;;;5078961;28;20037;-76
2022/03/11 07:57:31;;;;;;;29.13;14.85;;;3.60;99.90;;;;;;5046373;28;20163;-75
2022/03/11 07:59:58;;;;;;;30.92;15.45;;;3.60;99.90;;;;;;5043871;28;20057;-76
2022/03/11 08:02:23;;;;;;;28.17;15.00;;;3.70;99.90;;;;;;5046100;28;20405;-76
2022/03/11 08:04:49;;;;;;;26.35;14.52;;;3.80;99.90;;;;;;5056251;28;20048;-79
2022/03/11 08:07:14;;;;;;;28.30;13.90;;;4.30;99.90;;;;;;5064399;28;20048;-75
2022/03/11 08:09:41;;;;;;;31.67;14.88;;;3.90;99.90;;;;;;5049092;28;20055;-75
2022/03/11 08:12:07;;;;;;;26.05;14.63;;;4.00;99.90;;;;;;5046318;28;20064;-75
2022/03/11 08:14:33;;;;;;;26.83;14.40;;;4.00;99.90;;;;;;5046725;28;20068;-75
2022/03/11 08:16:59;;;;;;;27.83;15.02;;;4.10;99.90;;;;;;5041013;28;20131;-76
2022/03/11 08:19:25;;;;;;;26.88;15.50;;;4.20;99.90;;;;;;5068779;28;20672;-75
2022/03/11 08:21:51;;;;;;;25.02;13.95;;;4.20;99.90;;;;;;5045523;28;20045;-76
2022/03/11 08:24:17;;;;;;;26.05;14.65;;;4.50;99.90;;;;;;5049928;28;20068;-77
2022/03/11 08:26:43;;;;;;;27.95;15.07;;;4.40;99.90;;;;;;5040036;28;20045;-76
2022/03/11 08:29:09;;;;;;;23.58;14.18;;;4.50;99.90;;;;;;5052705;28;20036;-76
2022/03/11 08:31:36;;;;;;;28.83;15.10;;;5.00;99.90;;;;;;5069751;28;20070;-76
2022/03/11 08:34:01;;;;;;;28.75;15.75;;;4.60;99.90;;;;;;5048760;28;20037;-76
2022/03/11 08:36:27;;;;;;;28.08;14.93;;;4.60;99.90;;;;;;5048728;28;20048;-76
2022/03/11 08:38:52;;;;;;;23.45;13.88;;;4.70;99.90;;;;;;5043788;28;20128;-76
2022/03/11 08:41:19;;;;;;;29.52;15.32;;;4.80;99.90;;;;;;5035637;28;20079;-76
2022/03/11 08:43:49;;;;;;;28.23;14.82;;;4.80;99.90;;;;;;5042460;28;20040;-76
2022/03/11 08:46:14;;;;;;;26.52;14.30;;;5.00;99.90;;;;;;5047600;28;20045;-76
2022/03/11 08:48:41;;;;;;;27.65;14.65;;;4.90;99.90;;;;;;5063042;28;20059;-78
2022/03/11 08:51:08;;;;;;;31.00;14.60;;;5.00;99.90;;;;;;5043804;28;20091;-76
2022/03/11 08:53:34;;;;;;;27.70;14.52;;;5.00;99.90;;;;;;5038237;28;20044;-75
2022/03/11 08:55:59;;;;;;;25.95;14.88;;;5.10;99.90;;;;;;5054627;28;20041;-75
2022/03/11 08:58:25;;;;;;;26.88;15.30;;;5.20;99.90;;;;;;5077459;28;20120;-75
2022/03/11 09:00:51;;;;;;;26.67;13.95;;;5.20;99.90;;;;;;5049867;28;20028;-75
2022/03/11 09:03:16;;;;;;;28.38;14.65;;;5.30;99.90;;;;;;5049382;28;20105;-75
2022/03/11 09:05:42;;;;;;;29.35;14.20;;;5.30;99.90;;;;;;5059425;28;20210;-76
2022/03/11 09:08:08;;;;;;;26.52;15.73;;;5.30;99.90;;;;;;5046468;28;20099;-75
2022/03/11 09:10:34;;;;;;;25.73;15.68;;;5.40;99.90;;;;;;5050492;28;20131;-75
2022/03/11 09:13:00;;;;;;;27.42;14.10;;;5.50;99.90;;;;;;5069741;28;20036;-75
2022/03/11 09:15:26;;;;;;;24.95;14.27;;;5.60;99.90;;;;;;5067011;28;20043;-75
2022/03/11 09:17:52;;;;;;;29.42;16.35;;;5.60;99.90;;;;;;5058897;28;20101;-74
2022/03/11 09:20:17;;;;;;;28.75;14.50;;;5.70;99.90;;;;;;5069195;28;20033;-74
2022/03/11 09:22:43;;;;;;;27.52;14.88;;;5.80;99.90;;;;;;5050439;28;20508;-74
2022/03/11 09:25:11;;;;;;;27.92;15.23;;;5.80;99.90;;;;;;5042337;28;20045;-74
2022/03/11 09:27:37;;;;;;;28.42;15.18;;;6.00;99.90;;;;;;5061035;28;20086;-74
2022/03/11 09:30:05;;;;;;;27.38;14.68;;;6.10;99.90;;;;;;5069988;28;20114;-73
2022/03/11 09:32:30;;;;;;;25.48;15.05;;;6.20;99.90;;;;;;5043891;28;20183;-73
2022/03/11 09:34:58;;;;;;;30.52;13.43;;;6.30;99.90;;;;;;5051379;28;20135;-74
2022/03/11 09:37:23;;;;;;;24.92;14.43;;;6.40;99.90;;;;;;5064736;28;20399;-74
2022/03/11 09:39:49;;;;;;;26.08;15.20;;;6.50;99.90;;;;;;5062169;28;20041;-74
2022/03/11 09:42:15;;;;;;;26.77;14.75;;;6.60;99.90;;;;;;5043542;28;20040;-74
2022/03/11 09:44:41;;;;;;;28.58;15.00;;;6.80;99.90;;;;;;5050137;28;20037;-74
2022/03/11 09:47:07;;;;;;;28.92;14.75;;;6.90;99.90;;;;;;5065671;28;20033;-75
2022/03/11 09:49:35;;;;;;;26.00;15.05;;;7.00;99.90;;;;;;5032092;28;20129;-74
2022/03/11 09:52:02;;;;;;;26.25;15.40;;;7.10;99.90;;;;;;5067988;28;20090;-75
2022/03/11 09:54:27;;;;;;;27.98;14.35;;;7.20;99.90;;;;;;5054219;28;20044;-75
2022/03/11 09:56:53;;;;;;;25.63;15.40;;;7.30;99.90;;;;;;5062789;28;20542;-75
2022/03/11 09:59:19;;;;;;;25.50;14.57;;;7.40;99.90;;;;;;5058973;28;20048;-75
2022/03/11 10:01:44;;;;;;;27.20;14.20;;;7.60;99.90;;;;;;5069456;28;20389;-75
2022/03/11 10:04:11;;;;;;;26.50;15.02;;;7.60;99.90;;;;;;5048095;28;20044;-75
2022/03/11 10:06:45;;;;;;;22.48;14.35;;;7.70;99.90;;;;;;5062491;28;20053;-74
2022/03/11 10:09:20;;;;;;;25.60;15.20;;;7.90;99.90;;;;;;5037168;28;20072;-75
2022/03/11 10:11:46;;;;;;;;;;;7.90;99.90;;;;;;5058925;28;20048;-75
2022/03/11 10:14:12;;;;;;;23.77;13.98;;;8.10;99.90;;;;;;5043312;28;19933;-75
2022/03/11 10:16:40;;;;;;;24.88;14.63;;;8.10;99.90;;;;;;5042558;28;20083;-75
2022/03/11 10:19:10;;;;;;;23.90;14.27;;;8.30;99.80;;;;;;5048390;28;20037;-75
2022/03/11 10:21:42;;;;;;;27.45;15.20;;;8.40;99.60;;;;;;5067037;28;20054;-73
2022/03/11 10:24:15;;;;;;;24.13;14.35;;;8.50;99.10;;;;;;5054608;28;20066;-73
2022/03/11 10:26:44;;;;;;;28.20;14.77;;;8.60;98.30;;;;;;5058995;28;20127;-73
2022/03/11 10:29:15;;;;;;;24.52;13.68;;;8.70;98.70;;;;;;5043821;28;20587;-73
2022/03/11 10:31:43;;;;;;;24.80;14.98;;;8.80;98.20;;;;;;5072655;28;20531;-73
2022/03/11 10:34:15;;;;;;;25.13;14.50;;;9.00;97.60;;;;;;5052859;28;20045;-73
2022/03/11 10:36:55;;;;;;;25.38;13.45;;;9.10;96.90;;;;;;5064404;28;20484;-73
2022/03/11 10:39:28;;;;;;;23.42;14.43;;;9.20;96.20;;;;;;5047485;28;20086;-73
2022/03/11 10:41:59;;;;;;;24.08;14.75;;;9.20;96.40;;;;;;5052929;28;20080;-73
2022/03/11 10:44:27;;;;;;;25.73;14.02;;;9.40;96.50;;;;;;5063179;28;20123;-73
2022/03/11 10:46:54;;;;;;;22.15;14.60;;;9.50;94.90;;;;;;5051678;28;20495;-73
2022/03/11 10:49:26;;;;;;;27.13;15.55;;;10.10;95.00;;;;;;5050533;28;20095;-73
2022/03/11 10:51:54;;;;;;;23.08;14.50;;;9.50;94.20;;;;;;5065809;28;20052;-73
2022/03/11 10:54:23;;;;;;;24.35;15.80;;;9.80;93.80;;;;;;5048610;28;20045;-73
2022/03/11 10:56:48;;;;;;;25.33;14.82;;;9.90;94.80;;;;;;5045200;28;20152;-73
2022/03/11 10:59:25;;;;;;;22.10;14.93;;;10.00;94.10;;;;;;5059468;28;20051;-73
2022/03/11 11:01:52;;;;;;;24.75;15.50;;;10.10;92.80;;;;;;5048055;28;20476;-73
2022/03/11 11:04:18;;;;;;;22.50;14.27;;;10.30;93.30;;;;;;5072861;28;20072;-73
2022/03/11 11:06:45;;;;;;;22.90;13.82;;;10.30;92.50;;;;;;5048842;28;20056;-74
2022/03/11 11:09:12;;;;;;;22.10;13.70;;;10.50;91.80;;;;;;5052672;28;20036;-75
2022/03/11 11:11:39;;;;;;;22.10;14.38;;;10.50;91.30;;;;;;5057418;28;20044;-74
2022/03/11 11:14:07;;;;;;;24.75;14.85;;;10.60;91.70;;;;;;5074389;28;20036;-74
2022/03/11 11:16:41;;;;;;;24.80;15.60;;;10.70;90.30;;;;;;5069812;28;20048;-74
2022/03/11 11:19:12;;;;;;;24.50;15.65;;;10.80;90.50;;;;;;5069480;28;20043;-74
2022/03/11 11:21:40;;;;;;;23.75;15.20;;;10.80;89.10;;;;;;5077244;28;20037;-74
2022/03/11 11:24:15;;;;;;;22.42;14.82;;;10.90;90.20;;;;;;5066339;28;20058;-74
2022/03/11 11:26:45;;;;;;;23.50;14.60;;;11.00;88.00;;;;;;5053622;28;20041;-74
2022/03/11 11:29:11;;;;;;;21.50;13.65;;;11.70;87.30;;;;;;5073700;28;20039;-73
2022/03/11 11:31:41;;;;;;;25.65;15.43;;;11.10;87.70;;;;;;5072427;28;20071;-73
2022/03/11 11:34:26;;;;;;;24.25;15.32;;;11.40;86.60;;;;;;5050052;28;20041;-73
2022/03/11 11:36:52;;;;;;;21.38;15.07;;;11.10;85.70;;;;;;5052822;28;20052;-73
2022/03/11 11:39:17;;;;;;;21.65;14.45;;;11.20;85.60;;;;;;5071582;28;20044;-74
2022/03/11 11:41:53;;;;;;;23.30;14.45;;;11.30;86.00;;;;;;5071824;28;20041;-73
2022/03/11 11:44:30;;;;;;;21.80;14.48;;;11.50;84.60;;;;;;5053621;28;20040;-73
2022/03/11 11:47:11;;;;;;;23.30;14.43;;;11.30;83.70;;;;;;5068570;28;20086;-73
2022/03/11 11:49:41;;;;;;;20.70;13.75;;;11.40;83.60;;;;;;5061688;28;20056;-73
2022/03/11 11:52:11;;;;;;;20.80;12.95;;;11.40;83.90;;;;;;5056974;28;20048;-72
2022/03/11 11:54:39;;;;;;;22.25;14.07;;;11.60;83.00;;;;;;5070426;28;20052;-73
2022/03/11 11:57:06;;;;;;;22.15;13.88;;;11.60;81.80;;;;;;5073207;28;20062;-72
2022/03/11 11:59:37;;;;;;;23.42;13.68;;;11.70;80.90;;;;;;5050823;28;20071;-73
2022/03/11 12:02:24;;;;;;;24.10;13.98;;;11.70;80.40;;;;;;5051533;28;20051;-74
2022/03/11 12:04:49;;;;;;;22.05;14.40;;;11.80;79.60;;;;;;5053171;28;20044;-73
2022/03/11 12:07:17;;;;;;;22.17;14.95;;;11.70;78.70;;;;;;5049739;28;20083;-73
2022/03/11 12:12:09;;;;;;;21.15;14.00;;;11.90;78.80;;;;;;5052495;28;20064;-74
2022/03/11 12:14:53;;;;;;;21.27;13.77;;;11.90;77.70;;;;;;5051468;28;20044;-73
2022/03/11 12:17:39;;;;;;;20.48;13.38;;;12.10;77.60;;;;;;5049295;28;20106;-73
2022/03/11 12:20:45;;;;;;;22.27;13.73;;;12.20;77.10;;;;;;5056380;28;20071;-73
2022/03/11 12:23:14;;;;;;;24.00;13.55;;;12.20;75.60;;;;;;5050134;28;20045;-73
2022/03/11 12:25:41;;;;;;;20.55;13.23;;;12.30;75.50;;;;;;5051230;28;20118;-73
2022/03/11 12:28:20;;;;;;;24.08;14.00;;;12.40;75.50;;;;;;5071391;28;20044;-73
2022/03/11 12:30:49;;;;;;;23.45;13.43;;;12.50;74.40;;;;;;5077852;28;20048;-73
2022/03/11 12:33:16;;;;;;;20.40;13.32;;;12.50;73.50;;;;;;5051236;28;20075;-73
2022/03/11 12:35:43;;;;;;;20.10;12.85;;;12.60;74.30;;;;;;5052427;28;20055;-73
2022/03/11 12:38:19;;;;;;;20.40;13.48;;;12.70;73.60;;;;;;5049141;28;20479;-73
2022/03/11 12:40:46;;;;;;;21.25;13.38;;;12.70;71.30;;;;;;5052201;28;20048;-73